Time;durP1;ratioP1;P1;durP2;ratioP2;P2;SDS_P1;SDS_P2;PMS_P1;PMS_P2;Temp;Humidity;BMP_temperature;BMP_pressure;BME280_temperature;BME280_humidity;BME280_pressure;Samples;Min_cycle;Max_cycle;Signal;HPM_P1;HPM_P2
2022/10/06 00:01:56;;;;;;;2.00;1.80;;;;;;;16.06;72.58;101164.16;5054047;28;20900;-74
2022/10/06 00:04:22;;;;;;;1.80;1.50;;;;;;;16.06;72.55;101169.63;5048507;28;20397;-75
2022/10/06 00:06:47;;;;;;;3.73;1.93;;;;;;;16.05;72.66;101167.97;5050771;28;20423;-75
2022/10/06 00:09:12;;;;;;;4.88;1.80;;;;;;;16.04;72.62;101175.34;5050238;28;20406;-75
2022/10/06 00:11:38;;;;;;;2.40;2.20;;;;;;;16.03;72.80;101176.44;5047671;28;20808;-74
2022/10/06 00:14:03;;;;;;;3.50;1.60;;;;;;;15.96;73.05;101184.03;5049345;28;20489;-75
2022/10/06 00:16:28;;;;;;;1.55;1.45;;;;;;;15.93;73.17;101190.03;5041976;28;20407;-75
2022/10/06 00:18:55;;;;;;;6.20;1.80;;;;;;;15.95;73.29;101187.84;5064641;28;20449;-75
2022/10/06 00:21:21;;;;;;;3.60;2.40;;;;;;;15.97;73.07;101198.53;5061450;28;20408;-74
2022/10/06 00:23:46;;;;;;;2.30;1.93;;;;;;;15.95;72.89;101204.25;5042828;28;20406;-75
2022/10/06 00:26:15;;;;;;;2.47;1.60;;;;;;;15.94;73.01;101207.25;5058106;28;20409;-75
2022/10/06 00:28:47;;;;;;;3.33;1.58;;;;;;;15.94;73.25;101213.53;5049580;28;20405;-75
2022/10/06 00:31:13;;;;;;;3.15;1.75;;;;;;;15.93;73.31;101211.09;5038712;28;20533;-75
2022/10/06 00:33:39;;;;;;;1.92;1.67;;;;;;;15.93;72.96;101202.88;5051956;28;20848;-75
2022/10/06 00:36:04;;;;;;;2.30;1.70;;;;;;;15.94;73.21;101218.16;5055045;28;20398;-75
2022/10/06 00:38:29;;;;;;;2.55;1.58;;;;;;;15.94;73.18;101208.06;5058428;28;20406;-75
2022/10/06 00:40:55;;;;;;;4.07;1.53;;;;;;;15.95;73.23;101215.19;5048412;28;20493;-74
2022/10/06 00:43:50;;;;;;;5.63;1.83;;;;;;;15.94;73.13;101213.53;5051368;28;20480;-75
2022/10/06 00:46:37;;;;;;;2.47;1.70;;;;;;;15.99;72.98;101220.97;5055148;28;20403;-75
2022/10/06 00:49:08;;;;;;;4.40;1.80;;;;;;;15.99;73.14;101223.69;5052380;28;20472;-75
2022/10/06 00:51:37;;;;;;;3.50;2.17;;;;;;;16.00;73.26;101234.34;5051929;28;20413;-75
2022/10/06 00:54:03;;;;;;;3.03;2.47;;;;;;;16.00;73.27;101225.34;5053819;28;20424;-75
2022/10/06 00:56:28;;;;;;;3.17;2.10;;;;;;;15.99;73.21;101240.09;5034977;28;20405;-74
2022/10/06 00:58:54;;;;;;;2.17;1.50;;;;;;;15.97;73.31;101228.63;5052562;28;20758;-75
2022/10/06 01:01:19;;;;;;;3.28;2.05;;;;;;;15.97;73.37;101228.63;5055572;28;20398;-75
2022/10/06 01:03:54;;;;;;;2.73;2.10;;;;;;;16.01;73.40;101227.81;5055154;28;20958;-75
2022/10/06 01:06:19;;;;;;;3.35;2.22;;;;;;;16.01;73.39;101222.34;5041287;28;20810;-75
2022/10/06 01:08:45;;;;;;;3.90;2.17;;;;;;;16.01;73.54;101216.88;5051664;28;20405;-75
2022/10/06 01:11:13;;;;;;;1.95;1.73;;;;;;;15.97;73.52;101212.22;5059928;28;20410;-75
2022/10/06 01:13:42;;;;;;;2.30;2.10;;;;;;;15.94;73.54;101212.69;5054374;28;20423;-75
2022/10/06 01:16:23;;;;;;;5.60;2.20;;;;;;;15.91;73.81;101221.44;5062700;28;20866;-75
2022/10/06 01:18:48;;;;;;;5.18;2.22;;;;;;;15.85;74.02;101217.84;5034269;28;20398;-74
2022/10/06 01:21:26;;;;;;;2.47;2.28;;;;;;;15.83;74.23;101228.22;5059547;28;20934;-75
2022/10/06 01:23:52;;;;;;;2.40;1.80;;;;;;;15.81;74.09;101232.28;5044536;28;20739;-74
2022/10/06 01:26:21;;;;;;;5.00;2.30;;;;;;;15.81;74.25;101230.38;5050195;28;20456;-75
2022/10/06 01:28:47;;;;;;;4.15;2.00;;;;;;;15.80;74.49;101230.66;5049751;28;20419;-75
2022/10/06 01:31:13;;;;;;;5.32;2.33;;;;;;;15.79;74.39;101238.03;5053791;28;20413;-75
2022/10/06 01:33:38;;;;;;;3.27;2.00;;;;;;;15.70;74.84;101230.56;5040647;28;20405;-74
2022/10/06 01:36:04;;;;;;;4.00;1.87;;;;;;;15.69;74.92;101234.38;5046828;28;20564;-75
2022/10/06 01:38:29;;;;;;;3.53;2.07;;;;;;;15.66;75.21;101245.81;5059016;28;20397;-75
2022/10/06 01:40:54;;;;;;;3.53;1.75;;;;;;;15.63;75.29;101243.59;5053583;28;20476;-75
2022/10/06 01:43:20;;;;;;;3.60;1.87;;;;;;;15.61;75.56;101249.31;5045080;28;20413;-75
2022/10/06 01:45:55;;;;;;;3.20;1.80;;;;;;;15.63;75.48;101249.06;5055123;28;20398;-75
2022/10/06 01:48:20;;;;;;;3.50;2.10;;;;;;;15.64;75.44;101243.38;5050938;28;20754;-74
2022/10/06 01:50:45;;;;;;;3.70;2.03;;;;;;;15.64;75.46;101248.84;5050711;28;20409;-75
2022/10/06 01:53:11;;;;;;;5.70;2.33;;;;;;;15.67;75.31;101248.31;5047163;28;21029;-75
2022/10/06 01:55:36;;;;;;;3.90;2.10;;;;;;;15.68;75.31;101258.13;5042648;28;20504;-75
2022/10/06 01:58:01;;;;;;;5.43;2.60;;;;;;;15.68;75.46;101260.88;5047162;28;20407;-75
2022/10/06 02:00:27;;;;;;;4.38;2.70;;;;;;;15.69;75.65;101256.22;5047876;28;20450;-74
2022/10/06 02:02:52;;;;;;;6.07;2.53;;;;;;;15.70;75.66;101252.44;5051259;28;20407;-75
2022/10/06 02:05:17;;;;;;;5.30;3.03;;;;;;;15.70;75.80;101260.63;5042433;28;20494;-75
2022/10/06 02:07:43;;;;;;;5.07;2.60;;;;;;;15.66;75.89;101263.03;5054408;28;20776;-74
2022/10/06 02:10:08;;;;;;;3.90;2.70;;;;;;;15.64;75.94;101278.06;5040107;28;20425;-75
2022/10/06 02:12:34;;;;;;;4.00;2.70;;;;;;;15.61;76.21;101275.84;5051936;28;20420;-75
2022/10/06 02:14:59;;;;;;;7.93;2.70;;;;;;;15.59;76.47;101276.09;5049985;28;20935;-75
2022/10/06 02:17:24;;;;;;;4.23;2.23;;;;;;;15.59;76.24;101278.81;5049672;28;20429;-75
2022/10/06 02:19:50;;;;;;;2.00;1.80;;;;;;;15.59;76.08;101292.47;5050251;28;20901;-75
2022/10/06 02:22:15;;;;;;;7.43;2.27;;;;;;;15.58;76.04;101297.13;5049179;28;20455;-75
2022/10/06 02:24:41;;;;;;;6.68;1.95;;;;;;;15.56;76.35;101310.22;5050095;28;20716;-75
2022/10/06 02:27:06;;;;;;;4.50;2.30;;;;;;;15.54;76.35;101311.56;5028946;28;20467;-75
2022/10/06 02:29:32;;;;;;;4.65;2.33;;;;;;;15.53;76.49;101321.66;5047446;28;20892;-74
2022/10/06 02:31:58;;;;;;;6.60;2.60;;;;;;;15.54;76.68;101322.50;5047415;28;20500;-75
2022/10/06 02:34:23;;;;;;;7.33;2.80;;;;;;;15.53;76.76;101320.84;5051662;28;20410;-75
2022/10/06 02:36:48;;;;;;;3.53;2.03;;;;;;;15.51;76.84;101323.00;5049318;28;20734;-74
2022/10/06 02:39:13;;;;;;;7.80;2.40;;;;;;;15.47;76.95;101328.13;5048374;28;20436;-75
2022/10/06 02:41:39;;;;;;;6.60;2.43;;;;;;;15.49;76.95;101328.72;5049807;28;20778;-75
2022/10/06 02:44:04;;;;;;;3.93;2.50;;;;;;;15.55;76.82;101332.31;5056760;28;20417;-75
2022/10/06 02:46:30;;;;;;;4.63;2.50;;;;;;;15.57;76.75;101339.19;5052028;28;20391;-75
2022/10/06 02:48:55;;;;;;;2.60;2.43;;;;;;;15.64;76.59;101339.00;5049387;28;20416;-75
2022/10/06 02:51:21;;;;;;;3.58;2.70;;;;;;;15.65;76.67;101345.25;5048294;28;20504;-74
2022/10/06 02:53:48;;;;;;;4.32;3.50;;;;;;;15.69;76.43;101346.41;5057550;28;20436;-75
2022/10/06 02:56:19;;;;;;;4.70;3.60;;;;;;;15.71;76.54;101344.25;5060925;28;20392;-74
2022/10/06 02:58:46;;;;;;;5.70;4.28;;;;;;;15.67;76.74;101352.16;5049297;28;20484;-75
2022/10/06 03:01:25;;;;;;;5.32;3.28;;;;;;;15.62;77.04;101364.91;5040993;28;21007;-75
2022/10/06 03:03:50;;;;;;;6.07;3.05;;;;;;;15.58;77.29;101370.06;5040708;28;20463;-75
2022/10/06 03:06:21;;;;;;;3.40;2.10;;;;;;;15.60;77.34;101367.91;5031630;28;20411;-75
2022/10/06 03:08:47;;;;;;;6.90;2.28;;;;;;;16.14;75.58;101376.94;5057486;28;20500;-74
2022/10/06 03:11:13;;;;;;;6.53;3.23;;;;;;;15.89;76.38;101374.78;5043172;28;20861;-75
2022/10/06 03:13:40;;;;;;;5.15;2.22;;;;;;;15.82;76.95;101376.88;5037277;28;22386;-74
2022/10/06 03:16:18;;;;;;;5.30;2.97;;;;;;;15.83;77.10;101381.28;5060913;28;20478;-75
2022/10/06 03:18:45;;;;;;;4.65;2.30;;;;;;;15.87;77.25;101382.41;5045839;28;20398;-75
2022/10/06 03:21:13;;;;;;;6.60;2.50;;;;;;;15.88;77.28;101395.00;5049704;28;20760;-75
2022/10/06 03:23:39;;;;;;;3.50;2.30;;;;;;;15.91;77.47;101391.75;5043687;28;20383;-75
2022/10/06 03:26:05;;;;;;;4.67;2.80;;;;;;;15.97;77.48;101400.84;5059684;28;20384;-75
2022/10/06 03:28:30;;;;;;;6.55;2.67;;;;;;;16.00;77.72;101409.31;5056420;28;20451;-75
2022/10/06 03:31:02;;;;;;;7.57;2.47;;;;;;;16.03;77.87;101403.38;5045820;28;20793;-75
2022/10/06 03:33:28;;;;;;;4.15;2.67;;;;;;;16.06;77.81;101404.75;5055472;28;20768;-75
2022/10/06 03:35:58;;;;;;;9.05;3.10;;;;;;;16.10;77.90;101409.44;5048762;28;20402;-75
2022/10/06 03:38:23;;;;;;;5.43;2.30;;;;;;;16.12;78.06;101417.41;5057677;28;20468;-75
2022/10/06 03:40:48;;;;;;;3.73;2.47;;;;;;;16.14;78.33;101419.84;5056819;28;20427;-75
2022/10/06 03:43:14;;;;;;;4.50;2.77;;;;;;;16.18;78.21;101423.72;5039044;28;20402;-75
2022/10/06 03:45:39;;;;;;;8.03;2.70;;;;;;;16.21;78.17;101434.97;5059474;28;20419;-75
2022/10/06 03:48:04;;;;;;;2.92;2.60;;;;;;;16.23;78.25;101434.72;5056946;28;20606;-75
2022/10/06 03:50:30;;;;;;;6.80;2.67;;;;;;;16.23;78.40;101430.09;5057197;28;20413;-75
2022/10/06 03:52:55;;;;;;;5.40;2.43;;;;;;;16.24;78.59;101439.94;5053161;28;20924;-75
2022/10/06 03:55:20;;;;;;;4.67;2.57;;;;;;;16.23;78.67;101448.41;5056995;28;20399;-75
2022/10/06 03:57:46;;;;;;;9.18;3.00;;;;;;;16.24;78.73;101453.59;5051722;28;20403;-75
2022/10/06 04:00:12;;;;;;;3.07;2.17;;;;;;;16.26;78.98;101458.84;5048307;28;20401;-74
2022/10/06 04:02:37;;;;;;;5.87;2.80;;;;;;;16.30;78.93;101457.22;5049484;28;20397;-75
2022/10/06 04:05:03;;;;;;;4.07;2.47;;;;;;;16.31;79.11;101469.81;5047574;28;20936;-74
2022/10/06 04:07:28;;;;;;;3.93;2.60;;;;;;;16.31;79.20;101464.34;5052396;28;20413;-75
2022/10/06 04:09:53;;;;;;;7.82;2.75;;;;;;;16.30;79.18;101468.97;5041603;28;20430;-75
2022/10/06 04:12:19;;;;;;;6.70;2.70;;;;;;;16.32;79.30;101474.19;5056567;28;20474;-75
2022/10/06 04:14:44;;;;;;;7.07;2.80;;;;;;;16.33;79.42;101473.97;5057313;28;20433;-74
2022/10/06 04:17:09;;;;;;;11.30;3.00;;;;;;;16.32;79.48;101476.94;5055826;28;20399;-75
2022/10/06 04:19:34;;;;;;;5.83;2.63;;;;;;;16.31;79.42;101484.31;5047866;28;20410;-75
2022/10/06 04:22:00;;;;;;;4.93;2.30;;;;;;;16.30;79.63;101492.78;5048320;28;20398;-75
2022/10/06 04:24:25;;;;;;;5.80;2.67;;;;;;;16.30;79.83;101493.59;5050519;28;20824;-75
2022/10/06 04:26:51;;;;;;;7.43;3.10;;;;;;;16.32;79.74;101496.09;5053556;28;20401;-75
2022/10/06 04:29:16;;;;;;;4.35;3.13;;;;;;;16.35;79.89;101499.13;5050571;28;20525;-75
2022/10/06 04:31:41;;;;;;;3.80;2.55;;;;;;;16.37;79.68;101498.88;5040449;28;20422;-75
2022/10/06 04:34:09;;;;;;;5.87;2.97;;;;;;;16.38;79.75;101495.88;5051053;28;20769;-75
2022/10/06 04:36:39;;;;;;;8.68;2.60;;;;;;;16.39;79.73;101502.19;5045764;28;20871;-75
2022/10/06 04:39:06;;;;;;;4.63;3.08;;;;;;;16.35;80.15;101496.41;5043738;28;20816;-75
2022/10/06 04:41:34;;;;;;;5.97;2.78;;;;;;;16.38;80.21;101501.34;5056428;28;20385;-75
2022/10/06 04:44:01;;;;;;;4.35;2.78;;;;;;;16.38;80.38;101497.78;5048733;28;20416;-75
2022/10/06 04:46:27;;;;;;;4.60;2.97;;;;;;;16.38;80.25;101503.25;5056159;28;20387;-75
2022/10/06 04:48:53;;;;;;;3.03;2.80;;;;;;;16.38;80.62;101515.03;5056248;28;20804;-74
2022/10/06 04:51:21;;;;;;;3.88;2.90;;;;;;;16.37;80.41;101523.47;5052563;28;20444;-75
2022/10/06 04:53:47;;;;;;;6.35;2.88;;;;;;;16.37;80.34;101531.69;5048972;28;20942;-74
2022/10/06 04:56:22;;;;;;;4.93;2.92;;;;;;;16.36;80.52;101538.25;5049666;28;20408;-75
2022/10/06 04:58:49;;;;;;;5.93;2.47;;;;;;;16.36;80.49;101538.25;5055875;28;20405;-74
2022/10/06 05:01:21;;;;;;;5.43;2.50;;;;;;;16.36;80.41;101546.47;5060084;28;20903;-75
2022/10/06 05:03:51;;;;;;;3.42;2.65;;;;;;;16.34;80.55;101545.88;5063138;28;20741;-75
2022/10/06 05:06:19;;;;;;;8.48;2.60;;;;;;;16.32;80.69;101553.53;5056645;28;20389;-75
2022/10/06 05:08:52;;;;;;;4.35;2.72;;;;;;;16.32;80.51;101551.63;5058942;28;20405;-75
2022/10/06 05:11:19;;;;;;;4.13;2.33;;;;;;;16.35;80.65;101556.59;5041432;28;20413;-75
2022/10/06 05:13:45;;;;;;;5.07;2.30;;;;;;;16.36;80.60;101563.72;5046965;28;20473;-74
2022/10/06 05:16:13;;;;;;;3.58;2.20;;;;;;;16.36;80.39;101569.19;5038941;28;20413;-75
2022/10/06 05:18:39;;;;;;;5.28;1.98;;;;;;;16.32;80.43;101572.69;5045544;28;20409;-75
2022/10/06 05:21:07;;;;;;;2.90;2.30;;;;;;;16.30;80.46;101589.34;5041038;28;20731;-74
2022/10/06 05:23:35;;;;;;;3.53;1.77;;;;;;;16.31;80.25;101588.25;5052041;28;20402;-75
2022/10/06 05:26:01;;;;;;;2.30;2.10;;;;;;;16.30;80.03;101586.59;5050515;28;20402;-75
2022/10/06 05:28:28;;;;;;;4.55;1.70;;;;;;;16.29;79.72;101589.59;5025935;28;20448;-75
2022/10/06 05:31:12;;;;;;;3.03;1.73;;;;;;;16.26;79.53;101587.38;5053795;28;20504;-75
2022/10/06 05:33:38;;;;;;;2.83;1.58;;;;;;;16.26;79.19;101592.84;5054466;28;20888;-74
2022/10/06 05:36:06;;;;;;;5.40;1.57;;;;;;;16.22;78.78;101603.47;5047490;28;20451;-75
2022/10/06 05:38:32;;;;;;;1.73;1.37;;;;;;;16.22;78.50;101599.91;5032363;28;20502;-75
2022/10/06 05:41:03;;;;;;;2.55;1.67;;;;;;;16.22;78.26;101605.38;5034584;28;20896;-75
2022/10/06 05:43:29;;;;;;;1.60;1.50;;;;;;;16.25;78.00;101600.22;5034169;28;20400;-75
2022/10/06 05:45:56;;;;;;;5.30;1.50;;;;;;;16.27;77.56;101619.13;5033523;28;20747;-76
2022/10/06 05:48:22;;;;;;;4.43;1.70;;;;;;;16.28;77.36;101616.13;5034326;28;20902;-75
2022/10/06 05:50:55;;;;;;;5.10;1.43;;;;;;;16.26;77.01;101615.56;5022897;28;20461;-75
2022/10/06 05:53:21;;;;;;;3.05;1.23;;;;;;;16.27;76.86;101621.88;5022822;28;20409;-75
2022/10/06 05:55:46;;;;;;;2.53;1.30;;;;;;;16.26;76.78;101621.03;5033800;28;20409;-75
2022/10/06 05:58:11;;;;;;;6.93;1.80;;;;;;;16.25;76.77;101619.38;5035030;28;20415;-75
2022/10/06 06:00:37;;;;;;;4.97;1.80;;;;;;;16.26;76.73;101628.41;5032944;28;20413;-75
2022/10/06 06:03:02;;;;;;;3.40;1.33;;;;;;;16.24;76.56;101631.38;5038564;28;20408;-75
2022/10/06 06:05:27;;;;;;;1.97;1.23;;;;;;;16.24;76.79;101623.19;5033588;28;20465;-75
2022/10/06 06:07:53;;;;;;;6.43;1.40;;;;;;;16.23;76.95;101617.97;5035936;28;20954;-74
2022/10/06 06:10:18;;;;;;;5.43;1.80;;;;;;;16.26;76.59;101626.50;5034268;28;20407;-75
2022/10/06 06:12:46;;;;;;;4.80;1.37;;;;;;;16.32;76.71;101624.66;5036624;28;20406;-74
2022/10/06 06:17:55;;;;;;;3.57;1.50;;;;;;;16.25;76.80;101638.53;5033094;28;20398;-75
2022/10/06 06:20:21;;;;;;;5.97;1.80;;;;;;;16.25;77.06;101641.25;5035361;28;20403;-75
2022/10/06 06:22:51;;;;;;;3.53;1.40;;;;;;;16.27;76.92;101641.81;5034901;28;20505;-75
2022/10/06 06:25:16;;;;;;;2.20;1.48;;;;;;;16.24;76.82;101647.81;5026069;28;20441;-75
2022/10/06 06:27:41;;;;;;;5.77;1.20;;;;;;;16.25;76.66;101654.09;5033605;28;20535;-75
2022/10/06 06:30:07;;;;;;;6.67;1.50;;;;;;;16.22;76.53;101658.19;5033535;28;20398;-75
2022/10/06 06:32:32;;;;;;;4.83;1.13;;;;;;;16.20;76.60;101667.72;5041078;28;20409;-75
2022/10/06 06:34:58;;;;;;;5.17;1.30;;;;;;;16.19;76.50;101672.38;5034494;28;21077;-75
2022/10/06 06:37:23;;;;;;;3.20;1.40;;;;;;;16.16;75.99;101681.06;5034962;28;20432;-74
2022/10/06 06:39:48;;;;;;;4.33;1.17;;;;;;;16.12;75.75;101690.84;5033171;28;20845;-74
2022/10/06 06:42:13;;;;;;;5.30;1.27;;;;;;;16.11;75.43;101702.88;5034030;28;20949;-75
2022/10/06 06:44:39;;;;;;;2.40;1.37;;;;;;;16.12;75.34;101700.97;5033395;28;20410;-75
2022/10/06 06:47:05;;;;;;;3.10;1.30;;;;;;;16.15;74.94;101703.19;5033979;28;20421;-76
2022/10/06 06:50:03;;;;;;;2.77;1.03;;;;;;;16.15;74.45;101703.19;5035028;28;20528;-76
2022/10/06 06:52:29;;;;;;;3.20;1.00;;;;;;;16.14;74.39;101710.56;5024200;28;20859;-76
2022/10/06 06:54:56;;;;;;;3.65;1.30;;;;;;;16.15;74.22;101723.16;5045879;28;20440;-76
2022/10/06 06:57:21;;;;;;;3.63;1.15;;;;;;;16.17;73.92;101717.47;5044904;28;20474;-76
2022/10/06 07:00:06;;;;;;;1.83;1.13;;;;;;;16.23;73.84;101722.75;5044668;28;20397;-76
2022/10/06 07:02:46;;;;;;;4.82;1.38;;;;;;;16.29;73.50;101727.22;5032485;28;20397;-76
2022/10/06 07:05:15;;;;;;;4.32;1.27;;;;;;;16.30;73.45;101728.03;5052131;28;20451;-76
2022/10/06 07:07:40;;;;;;;6.47;1.85;;;;;;;16.31;73.42;101730.50;5035778;28;20876;-76
2022/10/06 07:10:35;;;;;;;2.57;1.37;;;;;;;16.34;73.32;101732.75;5028745;28;20490;-77
2022/10/06 07:13:10;;;;;;;2.70;1.10;;;;;;;16.36;73.24;101736.06;5026262;28;20826;-76
2022/10/06 07:26:37;;;;;;;5.25;2.47;;;;;;;16.39;73.20;101756.63;5032525;28;20481;-76
2022/10/06 07:29:02;;;;;;;4.37;1.43;;;;;;;16.43;73.26;101764.06;5028585;28;20927;-76
2022/10/06 07:31:32;;;;;;;4.27;1.57;;;;;;;16.45;73.02;101759.19;5030258;28;20418;-76
2022/10/06 07:34:03;;;;;;;3.83;1.80;;;;;;;16.50;72.92;101763.88;5024448;28;20620;-76
2022/10/06 07:36:30;;;;;;;3.45;1.30;;;;;;;16.53;73.16;101771.59;5023011;28;20409;-76
2022/10/06 07:38:55;;;;;;;4.85;1.27;;;;;;;16.54;73.16;101770.50;5033741;28;20505;-76
2022/10/06 07:41:22;;;;;;;2.97;1.00;;;;;;;16.53;73.11;101772.41;5027642;28;20451;-77
2022/10/06 07:43:47;;;;;;;2.67;0.95;;;;;;;16.59;73.04;101771.47;5045562;28;20449;-75
2022/10/06 07:46:13;;;;;;;6.53;0.97;;;;;;;16.67;72.75;101775.63;5033919;28;20403;-75
2022/10/06 07:48:38;;;;;;;3.38;1.10;;;;;;;16.76;72.58;101787.81;5032669;28;20494;-76
2022/10/06 07:51:11;;;;;;;5.53;1.20;;;;;;;16.84;72.16;101784.63;5037790;28;20416;-76
2022/10/06 07:53:37;;;;;;;9.38;1.05;;;;;;;16.86;72.22;101787.94;5034487;28;20428;-76
2022/10/06 07:56:05;;;;;;;1.42;1.00;;;;;;;16.89;72.13;101787.44;5029279;28;20404;-76
2022/10/06 07:58:31;;;;;;;5.40;0.90;;;;;;;16.93;72.14;101779.53;5034339;28;20402;-76
2022/10/06 08:01:04;;;;;;;4.65;1.17;;;;;;;16.98;71.83;101785.09;5027756;28;20455;-76
2022/10/06 08:03:29;;;;;;;5.18;1.30;;;;;;;17.04;71.47;101784.88;5031707;28;20407;-76
2022/10/06 08:05:59;;;;;;;6.33;1.87;;;;;;;17.04;71.58;101787.63;5023202;28;20774;-76
2022/10/06 08:08:25;;;;;;;4.18;1.83;;;;;;;17.04;71.64;101789.53;5039651;28;20437;-76
2022/10/06 08:10:53;;;;;;;4.00;1.67;;;;;;;17.07;71.21;101789.03;5044304;28;20401;-76
2022/10/06 08:13:18;;;;;;;6.23;1.40;;;;;;;17.12;71.25;101789.91;5045440;28;20417;-76
2022/10/06 08:15:43;;;;;;;2.27;1.13;;;;;;;17.17;71.29;101789.16;5042827;28;20461;-76
2022/10/06 08:18:08;;;;;;;4.67;1.70;;;;;;;17.23;71.27;101788.13;5051305;28;20409;-76
2022/10/06 08:20:34;;;;;;;3.83;1.70;;;;;;;17.26;71.19;101795.81;5046183;28;20501;-76
2022/10/06 08:22:59;;;;;;;4.65;1.58;;;;;;;17.31;71.09;101795.91;5044549;28;20459;-76
2022/10/06 08:25:24;;;;;;;5.40;1.50;;;;;;;17.34;70.48;101803.59;5048421;28;20681;-76
2022/10/06 08:27:49;;;;;;;8.00;1.40;;;;;;;17.38;70.61;101803.91;5050084;28;20396;-76
2022/10/06 08:30:15;;;;;;;3.97;1.13;;;;;;;17.48;70.66;101806.75;5059232;28;20398;-75
2022/10/06 08:32:42;;;;;;;4.60;1.58;;;;;;;17.56;70.14;101803.56;5037133;28;20411;-76
2022/10/06 08:35:10;;;;;;;5.13;1.30;;;;;;;17.55;69.66;101804.66;5047540;28;20846;-76
2022/10/06 08:37:36;;;;;;;7.35;1.70;;;;;;;17.59;69.29;101803.88;5054240;28;20444;-76
2022/10/06 08:40:01;;;;;;;4.57;0.90;;;;;;;17.71;68.90;101817.44;5056688;28;20393;-75
2022/10/06 08:42:41;;;;;;;2.97;1.10;;;;;;;17.87;68.14;101818.41;5035359;28;20459;-76
2022/10/06 08:45:15;;;;;;;8.65;1.65;;;;;;;17.92;67.89;101813.78;5045966;28;20386;-76
2022/10/06 08:47:50;;;;;;;5.93;1.10;;;;;;;18.03;67.68;101820.19;5054500;28;20784;-75
2022/10/06 08:50:16;;;;;;;5.68;1.27;;;;;;;18.07;67.06;101822.19;5040185;28;20733;-76
2022/10/06 08:53:07;;;;;;;6.75;1.50;;;;;;;18.14;66.74;101817.25;5046863;28;20429;-76
2022/10/06 08:55:48;;;;;;;4.87;1.33;;;;;;;18.20;66.48;101828.31;5049443;28;20501;-76
2022/10/06 08:58:35;;;;;;;3.00;1.10;;;;;;;18.19;66.24;101830.22;5050723;28;20820;-75
2022/10/06 09:01:12;;;;;;;5.93;1.03;;;;;;;18.22;65.96;101826.09;5038699;28;20405;-76
2022/10/06 09:03:38;;;;;;;5.00;1.13;;;;;;;18.19;65.86;101830.22;5060053;28;20405;-76
2022/10/06 09:06:16;;;;;;;7.87;1.33;;;;;;;18.20;65.81;101833.78;5063719;28;20388;-75
2022/10/06 09:08:54;;;;;;;5.78;1.20;;;;;;;18.27;65.47;101834.41;5040317;28;20418;-76
2022/10/06 09:11:39;;;;;;;4.20;1.27;;;;;;;18.36;65.13;101847.38;5049592;28;20795;-76
2022/10/06 09:14:26;;;;;;;7.95;1.00;;;;;;;18.46;64.04;101844.69;5051803;28;20397;-76
2022/10/06 09:16:59;;;;;;;7.83;1.83;;;;;;;18.45;63.19;101839.47;5050700;28;20443;-76
2022/10/06 09:19:44;;;;;;;5.28;1.25;;;;;;;18.58;63.04;101844.53;5052817;28;20838;-76
2022/10/06 09:22:19;;;;;;;8.60;1.38;;;;;;;18.74;62.75;101853.72;5032403;28;20424;-75
2022/10/06 09:24:49;;;;;;;10.20;1.52;;;;;;;18.93;62.44;101858.50;5044923;28;20415;-75
2022/10/06 09:27:49;;;;;;;6.38;1.38;;;;;;;19.02;61.12;101854.13;5053253;28;20398;-75
2022/10/06 09:30:18;;;;;;;7.13;1.70;;;;;;;18.99;61.23;101853.84;5036947;28;20399;-75
2022/10/06 09:32:46;;;;;;;6.43;1.38;;;;;;;19.00;61.29;101859.06;5032772;28;20397;-75
2022/10/06 09:35:23;;;;;;;6.95;1.70;;;;;;;19.09;61.26;101857.47;5047983;28;20878;-75
2022/10/06 09:37:53;;;;;;;4.43;1.95;;;;;;;19.11;60.55;101857.19;5044871;28;20410;-75
2022/10/06 09:40:40;;;;;;;6.45;2.03;;;;;;;19.06;61.10;101859.94;5057612;28;20746;-75
2022/10/06 09:43:26;;;;;;;6.47;1.40;;;;;;;19.15;60.84;101861.88;5050513;28;20759;-75
2022/10/06 09:45:56;;;;;;;9.63;1.63;;;;;;;19.29;60.43;101867.72;5059122;28;20868;-75
2022/10/06 09:48:26;;;;;;;4.97;1.55;;;;;;;19.42;59.97;101867.25;5041337;28;20405;-75
2022/10/06 09:51:12;;;;;;;3.15;1.05;;;;;;;19.57;59.56;101860.97;5039397;28;20413;-75
2022/10/06 09:53:38;;;;;;;3.93;1.50;;;;;;;19.60;58.57;101858.50;5047627;28;20476;-75
2022/10/06 09:56:17;;;;;;;6.43;1.27;;;;;;;19.65;58.70;101863.19;5055547;28;20791;-75
2022/10/06 09:58:55;;;;;;;8.00;1.20;;;;;;;19.81;58.61;101853.03;5053303;28;20860;-75
2022/10/06 10:01:24;;;;;;;4.65;1.10;;;;;;;20.01;58.08;101859.41;5033259;28;20405;-75
2022/10/06 10:03:52;;;;;;;6.20;1.67;;;;;;;20.27;58.18;101860.28;5035214;28;20395;-75
2022/10/06 10:06:26;;;;;;;6.43;1.42;;;;;;;20.34;58.09;101863.56;5050459;28;20398;-75
2022/10/06 10:09:12;;;;;;;5.45;1.20;;;;;;;20.00;57.96;101859.66;5050163;28;20876;-75
2022/10/06 10:14:21;;;;;;;3.80;1.05;;;;;;;19.56;58.44;101857.38;5049114;28;20415;-75
2022/10/06 10:16:47;;;;;;;4.40;1.27;;;;;;;19.53;58.35;101851.59;5052577;28;20755;-75
2022/10/06 10:19:26;;;;;;;6.43;1.52;;;;;;;19.31;59.12;101854.53;5059347;28;20477;-75
2022/10/06 10:21:55;;;;;;;2.75;1.23;;;;;;;19.19;60.03;101856.69;5055077;28;20765;-75
2022/10/06 10:24:34;;;;;;;4.18;1.45;;;;;;;19.08;60.59;101849.47;5061020;28;20425;-75
2022/10/06 10:27:14;;;;;;;6.03;1.48;;;;;;;19.01;60.78;101846.97;5059600;28;20811;-75
2022/10/06 10:30:00;;;;;;;5.67;1.20;;;;;;;19.02;61.12;101856.06;5056072;28;20810;-76
2022/10/06 10:32:51;;;;;;;2.72;0.95;;;;;;;18.92;61.51;101854.09;5042291;28;20925;-75
2022/10/06 10:35:32;;;;;;;7.78;1.42;;;;;;;18.93;61.35;101850.25;5044050;28;20400;-75
2022/10/06 10:38:08;;;;;;;7.10;1.45;;;;;;;19.01;61.09;101854.38;5048332;28;20405;-75
2022/10/06 10:40:47;;;;;;;6.45;1.30;;;;;;;19.07;61.01;101859.63;5051206;28;20473;-75
2022/10/06 10:43:32;;;;;;;5.78;1.33;;;;;;;19.10;60.42;101856.34;5047049;28;20413;-75
2022/10/06 10:46:08;;;;;;;8.68;1.38;;;;;;;19.16;60.21;101857.22;5048595;28;20453;-75
2022/10/06 10:48:37;;;;;;;5.28;1.60;;;;;;;19.12;60.12;101862.44;5042647;28;20429;-75
2022/10/06 10:51:27;;;;;;;5.53;1.10;;;;;;;19.02;60.32;101862.38;5048129;28;20413;-75
2022/10/06 10:54:34;;;;;;;7.07;1.30;;;;;;;18.92;60.88;101862.31;5047271;28;20446;-75
2022/10/06 10:56:59;;;;;;;4.90;1.27;;;;;;;18.95;60.95;101859.03;5042080;28;20426;-75
2022/10/06 10:59:33;;;;;;;6.00;1.17;;;;;;;19.02;61.42;101862.38;5050328;28;20880;-74
2022/10/06 11:02:11;;;;;;;5.43;1.40;;;;;;;19.16;61.25;101851.72;5048055;28;20405;-75
2022/10/06 11:04:41;;;;;;;5.28;1.17;;;;;;;19.41;60.88;101853.75;5050669;28;20401;-74
2022/10/06 11:07:22;;;;;;;5.55;1.42;;;;;;;19.60;59.74;101850.25;5056885;28;20406;-74
2022/10/06 11:10:04;;;;;;;9.27;1.20;;;;;;;19.73;58.60;101840.66;5051629;28;20470;-74
2022/10/06 11:12:48;;;;;;;6.25;1.67;;;;;;;19.66;58.64;101845.56;5047264;28;20423;-75
2022/10/06 11:15:38;;;;;;;6.53;1.00;;;;;;;19.73;58.88;101850.81;5052310;28;20404;-74
2022/10/06 11:18:28;;;;;;;5.47;1.37;;;;;;;20.35;57.02;101853.41;5047889;28;20943;-74
2022/10/06 11:21:02;;;;;;;3.78;1.17;;;;;;;21.96;52.90;101844.53;5050255;28;20404;-74
2022/10/06 11:23:35;;;;;;;2.92;1.00;;;;;;;22.44;50.40;101845.50;5033041;28;20498;-74
2022/10/06 11:26:08;;;;;;;4.50;1.02;;;;;;;21.62;52.32;101847.22;5049633;28;20895;-75
2022/10/06 11:28:52;;;;;;;4.07;0.90;;;;;;;21.00;54.02;101853.28;5047876;28;20490;-75
2022/10/06 11:31:47;;;;;;;8.00;1.55;;;;;;;21.13;53.77;101854.63;5043708;28;20425;-75
2022/10/06 11:34:13;;;;;;;6.95;1.25;;;;;;;21.20;53.59;101852.41;5041489;28;20498;-75
2022/10/06 11:36:59;;;;;;;7.77;1.63;;;;;;;21.14;53.00;101851.56;5046756;28;20536;-75
2022/10/06 11:39:49;;;;;;;6.53;1.63;;;;;;;20.90;54.25;101846.97;5033037;28;20898;-75
2022/10/06 11:42:20;;;;;;;5.50;1.38;;;;;;;20.64;55.22;101846.19;5048545;28;20487;-76
2022/10/06 11:45:12;;;;;;;4.32;1.40;;;;;;;20.77;54.37;101840.09;5052171;28;20405;-75
2022/10/06 11:48:26;;;;;;;5.87;0.87;;;;;;;20.94;53.80;101835.09;5038173;28;20421;-75
2022/10/06 11:51:12;;;;;;;4.07;1.27;;;;;;;21.01;53.90;101824.56;5031669;28;20801;-75
2022/10/06 11:53:39;;;;;;;6.05;1.00;;;;;;;21.12;53.43;101834.50;5036662;28;20443;-78
2022/10/06 11:56:37;;;;;;;4.75;1.20;;;;;;;21.33;53.66;101824.22;5051789;28;20495;-75